Time;durP1;ratioP1;P1;durP2;ratioP2;P2;SDS_P1;SDS_P2;PMS_P1;PMS_P2;Temp;Humidity;BMP_temperature;BMP_pressure;BME280_temperature;BME280_humidity;BME280_pressure;Samples;Min_cycle;Max_cycle;Signal;HPM_P1;HPM_P2
2023/05/08 00:00:22;;;;;;;14.68;10.85;;;12.70;99.90;;;;;;4993825;28;20077;-63
2023/05/08 00:02:48;;;;;;;12.43;10.40;;;12.60;99.90;;;;;;4988869;28;20156;-63
2023/05/08 00:05:14;;;;;;;12.93;10.82;;;12.60;99.90;;;;;;4995678;28;20045;-63
2023/05/08 00:07:40;;;;;;;12.85;11.00;;;12.50;99.90;;;;;;4978794;28;20038;-63
2023/05/08 00:10:07;;;;;;;11.80;10.55;;;12.50;99.90;;;;;;4989645;28;20401;-62
2023/05/08 00:12:33;;;;;;;14.60;12.20;;;12.50;99.90;;;;;;4958354;28;20120;-62
2023/05/08 00:14:59;;;;;;;13.45;11.77;;;12.50;99.90;;;;;;4995112;28;20065;-63
2023/05/08 00:17:25;;;;;;;15.68;11.80;;;12.40;99.90;;;;;;4993090;28;20045;-63
2023/05/08 00:19:51;;;;;;;14.75;12.32;;;12.40;99.90;;;;;;4989127;28;20056;-62
2023/05/08 00:22:18;;;;;;;14.68;11.50;;;12.40;99.90;;;;;;4981724;28;20049;-63
2023/05/08 00:24:44;;;;;;;18.80;11.73;;;12.40;99.90;;;;;;4980975;28;20045;-63
2023/05/08 00:27:09;;;;;;;13.45;12.05;;;12.30;99.90;;;;;;4991660;28;20046;-62
2023/05/08 00:29:35;;;;;;;13.45;11.27;;;12.30;99.90;;;;;;4987085;28;20037;-63
2023/05/08 00:32:01;;;;;;;14.43;11.40;;;12.30;99.90;;;;;;4991189;28;20278;-63
2023/05/08 00:34:27;;;;;;;16.25;12.18;;;12.30;99.90;;;;;;4990150;28;20053;-63
2023/05/08 00:36:55;;;;;;;13.02;11.63;;;12.20;99.90;;;;;;4998320;28;20052;-63
2023/05/08 00:39:20;;;;;;;16.95;12.23;;;12.20;99.90;;;;;;4992700;28;20583;-62
2023/05/08 00:41:46;;;;;;;14.38;12.00;;;12.20;99.90;;;;;;4991562;28;20057;-63
2023/05/08 00:44:12;;;;;;;14.68;12.80;;;12.20;99.90;;;;;;4988694;28;20049;-62
2023/05/08 00:46:38;;;;;;;13.75;12.30;;;12.10;99.90;;;;;;4989944;28;20069;-62
2023/05/08 00:49:05;;;;;;;14.98;12.85;;;12.10;99.90;;;;;;4989537;28;20057;-63
2023/05/08 00:51:32;;;;;;;14.35;12.50;;;12.10;99.90;;;;;;4988042;28;20309;-63
2023/05/08 00:53:59;;;;;;;14.95;12.30;;;12.10;99.90;;;;;;4990383;28;20045;-63
2023/05/08 00:56:27;;;;;;;14.40;12.50;;;12.10;99.90;;;;;;4987913;28;20044;-62
2023/05/08 00:58:53;;;;;;;14.93;12.30;;;12.00;99.90;;;;;;4987862;28;20119;-63
2023/05/08 01:01:18;;;;;;;15.77;12.90;;;12.00;99.90;;;;;;4985829;28;20050;-63
2023/05/08 01:03:44;;;;;;;13.80;12.30;;;12.00;99.90;;;;;;4989686;28;20049;-63
2023/05/08 01:06:10;;;;;;;14.75;12.95;;;12.00;99.90;;;;;;5001212;28;20049;-63
2023/05/08 01:08:36;;;;;;;14.95;13.05;;;11.90;99.90;;;;;;4988783;28;20037;-63
2023/05/08 01:11:21;;;;;;;14.75;12.73;;;11.90;99.90;;;;;;4990374;28;20045;-63
2023/05/08 01:14:16;;;;;;;15.90;13.10;;;11.80;99.90;;;;;;5002303;28;20061;-63
2023/05/08 01:16:47;;;;;;;14.57;13.02;;;11.80;99.90;;;;;;4989878;28;20143;-63
2023/05/08 01:19:19;;;;;;;13.80;11.93;;;11.80;99.90;;;;;;4988945;28;20704;-63
2023/05/08 01:21:52;;;;;;;14.55;11.98;;;11.80;99.90;;;;;;4989466;28;20061;-62
2023/05/08 01:24:54;;;;;;;15.13;13.52;;;11.80;99.90;;;;;;4994171;28;20111;-63
2023/05/08 01:28:11;;;;;;;14.35;12.85;;;11.80;99.90;;;;;;4990603;28;20128;-63
2023/05/08 01:30:58;;;;;;;15.27;12.73;;;11.70;99.90;;;;;;4943912;28;20099;-62
2023/05/08 01:33:50;;;;;;;16.15;12.73;;;11.70;99.90;;;;;;4991150;28;20056;-62
2023/05/08 01:36:46;;;;;;;15.55;12.90;;;11.70;99.90;;;;;;4969169;28;20522;-63
2023/05/08 01:39:29;;;;;;;14.25;12.70;;;11.70;99.90;;;;;;4990184;28;21042;-63
2023/05/08 01:42:27;;;;;;;15.05;13.07;;;11.60;99.90;;;;;;4980165;28;20057;-63
2023/05/08 01:44:59;;;;;;;15.30;13.70;;;11.60;99.90;;;;;;4994079;28;20057;-63
2023/05/08 01:47:28;;;;;;;15.27;13.10;;;11.60;99.90;;;;;;4989491;28;20053;-63
2023/05/08 01:50:06;;;;;;;17.05;13.68;;;11.50;99.90;;;;;;4991845;28;20076;-63
2023/05/08 01:52:45;;;;;;;16.33;13.68;;;11.50;99.90;;;;;;4991100;28;20045;-63
2023/05/08 01:55:16;;;;;;;15.63;13.70;;;11.50;99.90;;;;;;4991125;28;20723;-63
2023/05/08 01:57:47;;;;;;;16.05;12.75;;;11.40;99.90;;;;;;4985541;28;20122;-62
2023/05/08 02:00:17;;;;;;;16.33;13.60;;;11.40;99.90;;;;;;4990481;28;20050;-63
2023/05/08 02:02:45;;;;;;;17.73;14.23;;;11.40;99.90;;;;;;4984493;28;21004;-62
2023/05/08 02:05:12;;;;;;;17.63;13.93;;;11.40;99.90;;;;;;4987363;28;20089;-63
2023/05/08 02:07:42;;;;;;;15.90;13.45;;;11.40;99.90;;;;;;4987960;28;20046;-63
2023/05/08 02:10:10;;;;;;;17.98;13.93;;;11.40;99.90;;;;;;4969347;28;20085;-63
2023/05/08 02:12:37;;;;;;;17.70;13.63;;;11.40;99.90;;;;;;4974494;28;20126;-62
2023/05/08 02:15:06;;;;;;;18.42;13.68;;;11.30;99.90;;;;;;4993170;28;20065;-63
2023/05/08 02:17:33;;;;;;;19.50;13.82;;;11.30;99.90;;;;;;4986405;28;20052;-63
2023/05/08 02:20:02;;;;;;;17.42;13.80;;;11.30;99.90;;;;;;4973422;28;20081;-62
2023/05/08 02:22:31;;;;;;;17.40;13.73;;;11.30;99.90;;;;;;5004036;28;20054;-63
2023/05/08 02:24:57;;;;;;;15.57;13.85;;;11.30;99.90;;;;;;4989821;28;20507;-63
2023/05/08 02:27:25;;;;;;;17.65;13.63;;;11.20;99.90;;;;;;5004311;28;20037;-62
2023/05/08 02:29:52;;;;;;;24.42;14.25;;;11.20;99.90;;;;;;4966010;28;20151;-63
2023/05/08 02:32:24;;;;;;;17.45;14.23;;;11.20;99.90;;;;;;4994034;28;20110;-63
2023/05/08 02:34:51;;;;;;;17.27;13.98;;;11.20;99.90;;;;;;4990460;28;20131;-63
2023/05/08 02:37:19;;;;;;;18.27;14.10;;;11.10;99.90;;;;;;4976765;28;20069;-62
2023/05/08 02:39:47;;;;;;;16.00;13.18;;;11.10;99.90;;;;;;4990930;28;20103;-62
2023/05/08 02:42:13;;;;;;;15.85;14.15;;;11.10;99.90;;;;;;4986498;28;20059;-62
2023/05/08 02:44:39;;;;;;;18.13;14.60;;;11.10;99.90;;;;;;4989679;28;20077;-62
2023/05/08 02:47:21;;;;;;;16.27;14.32;;;11.10;99.90;;;;;;4970642;28;20125;-63
2023/05/08 02:50:02;;;;;;;16.20;13.80;;;11.10;99.90;;;;;;4994256;28;20045;-62
2023/05/08 02:52:48;;;;;;;18.40;14.23;;;11.00;99.90;;;;;;4994488;28;20152;-63
2023/05/08 02:55:41;;;;;;;17.35;14.32;;;11.00;99.90;;;;;;4989253;28;20045;-63
2023/05/08 02:58:11;;;;;;;18.40;14.32;;;11.00;99.90;;;;;;4989332;28;20042;-62
2023/05/08 03:00:47;;;;;;;18.05;14.15;;;11.00;99.90;;;;;;4987594;28;20069;-63
2023/05/08 03:03:26;;;;;;;17.17;13.68;;;11.00;99.90;;;;;;4989758;28;20077;-63
2023/05/08 03:05:58;;;;;;;20.85;13.85;;;10.90;99.90;;;;;;4987351;28;20052;-63
2023/05/08 03:08:33;;;;;;;17.13;14.18;;;10.90;99.90;;;;;;5001663;28;20044;-63
2023/05/08 03:11:18;;;;;;;16.45;13.88;;;10.90;99.90;;;;;;4990400;28;20417;-63
2023/05/08 03:13:46;;;;;;;20.77;14.20;;;10.90;99.90;;;;;;4989538;28;20505;-62
2023/05/08 03:16:23;;;;;;;18.98;14.77;;;10.80;99.90;;;;;;4996598;28;20512;-63
2023/05/08 03:18:54;;;;;;;16.98;14.30;;;10.80;99.90;;;;;;4989214;28;21708;-64
2023/05/08 03:21:25;;;;;;;18.70;14.63;;;10.80;99.90;;;;;;4991425;28;20461;-62
2023/05/08 03:23:52;;;;;;;15.15;13.52;;;10.80;99.90;;;;;;4998052;28;20042;-62
2023/05/08 03:26:21;;;;;;;18.08;14.52;;;10.80;99.90;;;;;;4983989;28;20054;-62
2023/05/08 03:28:51;;;;;;;17.48;14.02;;;10.80;99.90;;;;;;4989904;28;20037;-63
2023/05/08 03:31:21;;;;;;;18.83;14.45;;;10.70;99.90;;;;;;4988127;28;20042;-62
2023/05/08 03:33:53;;;;;;;15.93;13.48;;;10.70;99.90;;;;;;4989377;28;20146;-63
2023/05/08 03:36:21;;;;;;;18.95;13.93;;;10.70;99.90;;;;;;4989156;28;20671;-63
2023/05/08 03:38:47;;;;;;;16.67;14.73;;;10.70;99.90;;;;;;4992124;28;20095;-62
2023/05/08 03:41:13;;;;;;;16.50;14.40;;;10.70;99.90;;;;;;4983051;28;20484;-63
2023/05/08 03:43:40;;;;;;;20.05;13.63;;;10.60;99.90;;;;;;4983740;28;20129;-62
2023/05/08 03:46:06;;;;;;;17.80;13.75;;;10.60;99.90;;;;;;4991113;28;20042;-62
2023/05/08 03:48:33;;;;;;;19.00;14.23;;;10.60;99.90;;;;;;4975768;28;20645;-62
2023/05/08 03:51:02;;;;;;;17.23;14.02;;;10.60;99.90;;;;;;4991055;28;20059;-62
2023/05/08 03:53:32;;;;;;;16.85;14.02;;;10.60;99.90;;;;;;4974245;28;20132;-62
2023/05/08 03:55:58;;;;;;;17.50;14.43;;;10.60;99.90;;;;;;4984404;28;20042;-63
2023/05/08 03:59:08;;;;;;;17.08;13.80;;;10.60;99.90;;;;;;4994100;28;20168;-63
2023/05/08 04:01:41;;;;;;;19.33;14.30;;;10.60;99.90;;;;;;4974650;28;20061;-62
2023/05/08 04:04:13;;;;;;;17.42;14.20;;;10.50;99.90;;;;;;4993125;28;20894;-63
2023/05/08 04:07:02;;;;;;;17.95;14.82;;;10.50;99.90;;;;;;4991229;28;20041;-62
2023/05/08 04:09:38;;;;;;;17.38;14.75;;;10.50;99.90;;;;;;4994755;28;20176;-63
2023/05/08 04:12:26;;;;;;;19.40;14.63;;;10.50;99.90;;;;;;4995503;28;20488;-62
2023/05/08 04:15:00;;;;;;;17.15;14.43;;;10.50;99.90;;;;;;4997643;28;20058;-63
2023/05/08 04:17:35;;;;;;;20.95;14.82;;;10.40;99.90;;;;;;4976216;28;20099;-62
2023/05/08 04:20:03;;;;;;;18.77;15.40;;;10.40;99.90;;;;;;4974418;28;20050;-63
2023/05/08 04:22:32;;;;;;;17.42;14.32;;;10.40;99.90;;;;;;4992693;28;20053;-63
2023/05/08 04:25:01;;;;;;;16.77;14.15;;;10.40;99.90;;;;;;4989609;28;20052;-63
2023/05/08 04:27:28;;;;;;;18.33;14.68;;;10.40;99.90;;;;;;4990942;28;20041;-63
2023/05/08 04:29:55;;;;;;;17.83;14.57;;;10.40;99.90;;;;;;4989222;28;20095;-63
2023/05/08 04:32:21;;;;;;;17.33;14.25;;;10.40;99.90;;;;;;4990039;28;20046;-63
2023/05/08 04:34:48;;;;;;;16.23;14.30;;;10.40;99.90;;;;;;4989890;28;20107;-62
2023/05/08 04:37:25;;;;;;;18.30;14.07;;;10.40;99.90;;;;;;4971215;28;20759;-63
2023/05/08 04:39:51;;;;;;;15.63;13.75;;;10.40;99.90;;;;;;4989725;28;20049;-63
2023/05/08 04:42:17;;;;;;;15.77;13.20;;;10.50;99.90;;;;;;4976949;28;20156;-63
2023/05/08 04:44:43;;;;;;;16.73;13.85;;;10.50;99.90;;;;;;4991890;28;20037;-63
2023/05/08 04:47:09;;;;;;;18.75;13.60;;;10.50;99.90;;;;;;4972908;28;20526;-63
2023/05/08 04:49:35;;;;;;;14.93;13.20;;;10.50;99.90;;;;;;4991466;28;20049;-63
2023/05/08 04:52:00;;;;;;;17.13;13.85;;;10.50;99.90;;;;;;4976439;28;20068;-62
2023/05/08 04:54:26;;;;;;;15.18;13.18;;;10.50;99.90;;;;;;4989672;28;20053;-63
2023/05/08 04:56:52;;;;;;;15.85;13.43;;;10.60;99.90;;;;;;4979185;28;20057;-62
2023/05/08 04:59:17;;;;;;;17.60;14.05;;;10.60;99.90;;;;;;4958622;28;20059;-63
2023/05/08 05:01:46;;;;;;;17.40;12.95;;;10.60;99.90;;;;;;4994335;28;20053;-62
2023/05/08 05:04:11;;;;;;;16.98;12.90;;;10.60;99.90;;;;;;4990895;28;20064;-63
2023/05/08 05:06:37;;;;;;;13.27;11.93;;;10.60;99.90;;;;;;4991650;28;20033;-62
2023/05/08 05:09:04;;;;;;;13.82;12.15;;;10.60;99.90;;;;;;4989622;28;20085;-62
2023/05/08 05:11:29;;;;;;;15.93;13.38;;;10.60;99.90;;;;;;4979640;28;20053;-62
2023/05/08 05:13:55;;;;;;;14.98;12.27;;;10.60;99.90;;;;;;4987747;28;20068;-63
2023/05/08 05:16:21;;;;;;;14.85;12.40;;;10.60;99.90;;;;;;4979680;28;20060;-63
2023/05/08 05:18:46;;;;;;;16.38;12.80;;;10.60;99.90;;;;;;4986806;28;20048;-63
2023/05/08 05:21:12;;;;;;;16.60;13.10;;;10.60;99.90;;;;;;4976827;28;20049;-63
2023/05/08 05:23:38;;;;;;;15.00;12.85;;;10.60;99.90;;;;;;4987382;28;20202;-63
2023/05/08 05:26:04;;;;;;;16.10;13.27;;;10.70;99.90;;;;;;4984106;28;20132;-63
2023/05/08 05:28:30;;;;;;;15.15;12.40;;;10.70;99.90;;;;;;4982696;28;20045;-63
2023/05/08 05:30:55;;;;;;;14.93;12.43;;;10.70;99.90;;;;;;4967012;28;20041;-63
2023/05/08 05:33:21;;;;;;;15.50;12.40;;;10.70;99.90;;;;;;4975889;28;20044;-63
2023/05/08 05:35:47;;;;;;;16.27;12.55;;;10.80;99.90;;;;;;4968069;28;20467;-63
2023/05/08 05:38:13;;;;;;;14.98;12.68;;;10.80;99.90;;;;;;4984248;28;20056;-63
2023/05/08 05:40:38;;;;;;;12.60;11.30;;;10.80;99.90;;;;;;4972096;28;20135;-63
2023/05/08 05:43:04;;;;;;;17.02;12.57;;;10.90;99.90;;;;;;4975613;28;20088;-63
2023/05/08 05:45:31;;;;;;;15.38;12.38;;;10.90;99.90;;;;;;4998208;28;20045;-63
2023/05/08 05:47:56;;;;;;;15.68;12.57;;;10.90;99.90;;;;;;4987254;28;20049;-63
2023/05/08 05:50:22;;;;;;;16.30;12.15;;;11.00;99.90;;;;;;4985708;28;20053;-63
2023/05/08 05:52:48;;;;;;;17.80;12.52;;;11.00;99.90;;;;;;4990161;28;20042;-63
2023/05/08 05:55:14;;;;;;;14.02;12.13;;;11.00;99.90;;;;;;4981619;28;20381;-63
2023/05/08 05:57:39;;;;;;;17.95;13.27;;;11.00;99.90;;;;;;4995751;28;20049;-63
2023/05/08 06:00:06;;;;;;;13.98;12.45;;;11.00;99.90;;;;;;4990258;28;20041;-63
2023/05/08 06:02:34;;;;;;;15.30;12.73;;;11.10;99.90;;;;;;4969934;28;20081;-63
2023/05/08 06:05:00;;;;;;;17.48;12.65;;;11.10;99.90;;;;;;4977622;28;20042;-62
2023/05/08 06:07:26;;;;;;;15.52;12.93;;;11.20;99.90;;;;;;4955188;28;20080;-62
2023/05/08 06:09:52;;;;;;;16.15;12.50;;;11.20;99.90;;;;;;4983975;28;20397;-63
2023/05/08 06:12:18;;;;;;;18.13;12.65;;;11.30;99.90;;;;;;4991999;28;20047;-62
2023/05/08 06:14:44;;;;;;;16.55;12.43;;;11.30;99.90;;;;;;4992441;28;20072;-63
2023/05/08 06:17:10;;;;;;;15.77;12.82;;;11.40;99.90;;;;;;5007008;28;20049;-63
2023/05/08 06:19:35;;;;;;;14.75;13.00;;;11.50;99.90;;;;;;4992713;28;20092;-62
2023/05/08 06:22:02;;;;;;;15.75;12.55;;;11.60;99.90;;;;;;4992530;28;20219;-62
2023/05/08 06:24:27;;;;;;;15.00;12.85;;;11.70;99.90;;;;;;4980843;28;20045;-63
2023/05/08 06:26:53;;;;;;;14.57;12.00;;;11.90;99.90;;;;;;4993626;28;20080;-63
2023/05/08 06:29:19;;;;;;;16.88;13.07;;;12.00;99.90;;;;;;5005534;28;20041;-62
2023/05/08 06:31:45;;;;;;;13.50;11.93;;;12.10;99.90;;;;;;4990996;28;20049;-63
2023/05/08 06:34:11;;;;;;;13.80;12.40;;;12.20;99.90;;;;;;4994372;28;20041;-63
2023/05/08 06:36:37;;;;;;;14.05;11.98;;;12.20;99.90;;;;;;4993622;28;20044;-63
2023/05/08 06:39:06;;;;;;;13.93;12.32;;;12.30;99.90;;;;;;4976453;28;21275;-62
2023/05/08 06:41:32;;;;;;;14.60;11.98;;;12.40;99.90;;;;;;4992223;28;20042;-62
2023/05/08 06:43:58;;;;;;;16.58;13.05;;;12.50;99.90;;;;;;4992006;28;20730;-63
2023/05/08 06:46:24;;;;;;;13.32;11.90;;;12.60;99.90;;;;;;4993927;28;20050;-62
2023/05/08 06:48:49;;;;;;;16.85;12.63;;;12.70;99.90;;;;;;4980490;28;20159;-63
2023/05/08 06:51:15;;;;;;;13.55;12.13;;;12.70;99.90;;;;;;4983485;28;20049;-62
2023/05/08 06:53:41;;;;;;;13.95;12.23;;;12.80;99.90;;;;;;4996827;28;20049;-63
2023/05/08 06:56:07;;;;;;;16.17;12.13;;;12.90;99.90;;;;;;4996708;28;21924;-63
2023/05/08 06:58:33;;;;;;;14.82;12.27;;;12.90;99.90;;;;;;4997021;28;20053;-62
2023/05/08 07:01:00;;;;;;;15.50;11.75;;;13.00;99.90;;;;;;4997367;28;20045;-63
2023/05/08 07:03:26;;;;;;;15.52;12.15;;;13.00;99.90;;;;;;4994355;28;20049;-63
2023/05/08 07:05:52;;;;;;;13.50;11.88;;;13.00;99.90;;;;;;4995583;28;20073;-62
2023/05/08 07:08:18;;;;;;;13.40;11.45;;;13.10;99.90;;;;;;4987106;28;20263;-62
2023/05/08 07:10:44;;;;;;;13.23;11.60;;;13.20;99.90;;;;;;4982120;28;20048;-63
2023/05/08 07:13:10;;;;;;;17.75;11.35;;;13.20;99.90;;;;;;4995922;28;20037;-63
2023/05/08 07:15:37;;;;;;;13.05;11.45;;;13.30;99.90;;;;;;4981914;28;20057;-62
2023/05/08 07:18:04;;;;;;;13.65;11.35;;;13.30;99.90;;;;;;4983561;28;20455;-63
2023/05/08 07:20:29;;;;;;;13.52;11.40;;;13.40;99.90;;;;;;4981099;28;20041;-63
2023/05/08 07:22:55;;;;;;;14.13;11.75;;;13.50;99.90;;;;;;4984492;28;20561;-62
2023/05/08 07:25:21;;;;;;;14.50;12.05;;;13.50;99.90;;;;;;4982111;28;20096;-62
2023/05/08 07:27:47;;;;;;;13.25;11.68;;;13.60;99.90;;;;;;4964072;28;20066;-62
2023/05/08 07:30:13;;;;;;;14.27;11.93;;;13.60;99.90;;;;;;4978707;28;20045;-63
2023/05/08 07:32:39;;;;;;;15.27;12.27;;;13.70;99.90;;;;;;4980995;28;20473;-62
2023/05/08 07:35:07;;;;;;;13.43;11.93;;;13.70;99.90;;;;;;4997973;28;20050;-63
2023/05/08 07:37:33;;;;;;;14.18;11.95;;;13.80;99.90;;;;;;4986188;28;20116;-63
2023/05/08 07:39:59;;;;;;;14.45;12.43;;;13.80;99.90;;;;;;5001286;28;20572;-63
2023/05/08 07:42:25;;;;;;;13.27;11.90;;;13.90;99.90;;;;;;4985450;28;20045;-62
2023/05/08 07:44:50;;;;;;;14.50;11.57;;;14.00;99.90;;;;;;4983799;28;20501;-63
2023/05/08 07:47:17;;;;;;;13.27;11.88;;;14.10;99.90;;;;;;4961883;28;20727;-62
2023/05/08 07:49:42;;;;;;;13.02;11.63;;;14.20;99.90;;;;;;4984140;28;20050;-62
2023/05/08 07:52:08;;;;;;;13.50;12.10;;;14.30;99.90;;;;;;4969342;28;20054;-63
2023/05/08 07:54:34;;;;;;;16.60;12.27;;;14.40;99.90;;;;;;4981550;28;20042;-63
2023/05/08 07:57:00;;;;;;;15.32;12.02;;;14.50;99.90;;;;;;4981635;28;20517;-62
2023/05/08 07:59:25;;;;;;;13.45;11.60;;;14.50;99.90;;;;;;4960858;28;20497;-63
2023/05/08 08:01:51;;;;;;;13.35;11.40;;;14.70;99.90;;;;;;4983363;28;20049;-62
2023/05/08 08:04:17;;;;;;;13.57;11.63;;;14.80;99.90;;;;;;4984109;28;20065;-63
2023/05/08 08:06:43;;;;;;;15.98;12.10;;;15.00;99.90;;;;;;4983269;28;20420;-62
2023/05/08 08:09:08;;;;;;;15.40;12.13;;;15.10;99.90;;;;;;4981158;28;20412;-62
2023/05/08 08:11:34;;;;;;;12.60;11.18;;;15.20;99.90;;;;;;4973198;28;20252;-63
2023/05/08 08:14:00;;;;;;;13.80;11.55;;;15.40;99.90;;;;;;4976008;28;20770;-62
2023/05/08 08:16:25;;;;;;;14.68;11.75;;;15.50;99.90;;;;;;4989729;28;20140;-63
2023/05/08 08:18:51;;;;;;;12.52;11.23;;;15.60;99.90;;;;;;4992214;28;20049;-63
2023/05/08 08:21:18;;;;;;;13.30;11.70;;;15.70;99.90;;;;;;4994409;28;20510;-62
2023/05/08 08:23:43;;;;;;;12.30;11.00;;;15.80;99.90;;;;;;4979881;28;20049;-62
2023/05/08 08:26:09;;;;;;;13.68;11.60;;;15.90;99.90;;;;;;4995057;28;20402;-62
2023/05/08 08:28:35;;;;;;;14.07;11.70;;;16.00;99.90;;;;;;4992544;28;20829;-63
2023/05/08 08:31:01;;;;;;;13.43;11.18;;;16.10;99.90;;;;;;4997286;28;20088;-62
2023/05/08 08:33:29;;;;;;;12.85;11.43;;;16.00;99.90;;;;;;4990827;28;20046;-62
2023/05/08 08:35:55;;;;;;;13.50;12.10;;;16.00;99.90;;;;;;4997029;28;20072;-62
2023/05/08 08:38:21;;;;;;;13.82;11.88;;;16.00;99.90;;;;;;4992172;28;20046;-62
2023/05/08 08:40:47;;;;;;;14.60;11.88;;;15.90;99.90;;;;;;4994613;28;20034;-63
2023/05/08 08:43:12;;;;;;;14.40;11.77;;;16.00;99.90;;;;;;4999670;28;20046;-63
2023/05/08 08:45:38;;;;;;;12.80;11.50;;;16.00;99.90;;;;;;4992855;28;20046;-62
2023/05/08 08:48:08;;;;;;;14.82;12.05;;;16.00;99.90;;;;;;4995021;28;20592;-62
2023/05/08 08:50:35;;;;;;;13.13;11.63;;;16.10;99.90;;;;;;4992931;28;20138;-63
2023/05/08 08:53:21;;;;;;;13.02;11.57;;;16.20;99.90;;;;;;4996550;28;20053;-63
2023/05/08 08:55:52;;;;;;;14.32;11.88;;;16.30;99.90;;;;;;4992414;28;20046;-62
2023/05/08 08:58:53;;;;;;;13.48;12.10;;;16.40;99.90;;;;;;4995980;28;20120;-62
2023/05/08 09:01:20;;;;;;;12.82;11.50;;;16.40;99.90;;;;;;4967767;28;20105;-63
2023/05/08 09:03:47;;;;;;;13.38;11.73;;;16.50;99.90;;;;;;4978973;28;20085;-62
2023/05/08 09:06:13;;;;;;;15.07;11.70;;;16.60;99.90;;;;;;4973593;28;20077;-62
2023/05/08 09:08:40;;;;;;;13.52;12.00;;;16.80;99.90;;;;;;4989057;28;20087;-62
2023/05/08 09:11:07;;;;;;;13.00;11.60;;;16.90;99.90;;;;;;4989744;28;20042;-62
2023/05/08 09:13:33;;;;;;;13.23;11.48;;;17.00;99.90;;;;;;4991115;28;20065;-62
2023/05/08 09:15:59;;;;;;;13.80;12.05;;;17.20;99.90;;;;;;4983762;28;20066;-62
2023/05/08 09:18:24;;;;;;;13.93;11.65;;;17.20;99.90;;;;;;4973241;28;20052;-62
2023/05/08 09:20:50;;;;;;;16.25;11.77;;;17.30;99.90;;;;;;4980927;28;20739;-63
2023/05/08 09:23:17;;;;;;;13.55;11.38;;;17.40;99.90;;;;;;4990130;28;20480;-63
2023/05/08 09:25:43;;;;;;;13.45;11.95;;;17.40;99.90;;;;;;4991724;28;20049;-62
2023/05/08 09:28:16;;;;;;;12.60;11.23;;;17.60;99.90;;;;;;4992362;28;20045;-63
2023/05/08 09:30:57;;;;;;;15.25;11.65;;;17.70;99.90;;;;;;4992839;28;20044;-63
2023/05/08 09:33:27;;;;;;;14.07;12.68;;;17.90;99.90;;;;;;4994807;28;20078;-63
2023/05/08 09:35:54;;;;;;;14.60;12.65;;;18.00;99.90;;;;;;4994032;28;20049;-63
2023/05/08 09:38:40;;;;;;;14.18;12.07;;;18.10;99.90;;;;;;4992571;28;20049;-63
2023/05/08 09:41:14;;;;;;;14.02;12.52;;;18.20;99.90;;;;;;4994132;28;20054;-62
2023/05/08 09:43:41;;;;;;;16.90;11.85;;;18.10;99.90;;;;;;4992826;28;20046;-63
2023/05/08 09:46:23;;;;;;;12.32;11.13;;;18.20;99.90;;;;;;4991954;28;20052;-62
2023/05/08 09:48:57;;;;;;;20.00;12.77;;;18.30;99.90;;;;;;4992970;28;20506;-62
2023/05/08 09:51:23;;;;;;;14.68;12.38;;;18.60;99.90;;;;;;4995208;28;20049;-63
2023/05/08 09:53:51;;;;;;;13.73;12.32;;;18.70;99.90;;;;;;4973965;28;20041;-63
2023/05/08 09:56:38;;;;;;;13.75;12.35;;;18.80;99.90;;;;;;4993655;28;20045;-63
2023/05/08 09:59:22;;;;;;;13.48;12.15;;;18.90;99.90;;;;;;4992314;28;20136;-63
2023/05/08 10:01:47;;;;;;;14.77;12.77;;;19.00;99.90;;;;;;4992160;28;20386;-63
2023/05/08 10:04:14;;;;;;;19.63;12.85;;;19.10;99.90;;;;;;4991522;28;20060;-63
2023/05/08 10:06:40;;;;;;;14.02;12.52;;;19.30;99.90;;;;;;4982079;28;20060;-63
2023/05/08 10:09:13;;;;;;;14.80;12.48;;;19.40;99.90;;;;;;4992344;28;20073;-63
2023/05/08 10:11:41;;;;;;;17.95;12.55;;;19.60;99.90;;;;;;4993228;28;20033;-63
2023/05/08 10:14:07;;;;;;;13.93;11.98;;;19.70;99.90;;;;;;4974951;28;20073;-62
2023/05/08 10:16:44;;;;;;;14.40;12.27;;;19.80;99.90;;;;;;4992542;28;20051;-63
2023/05/08 10:19:18;;;;;;;17.98;12.57;;;19.90;99.90;;;;;;4996514;28;20041;-63
2023/05/08 10:21:48;;;;;;;15.18;11.88;;;20.00;99.90;;;;;;4981408;28;20111;-62
2023/05/08 10:24:17;;;;;;;14.90;12.45;;;20.20;99.90;;;;;;4985823;28;20724;-63
2023/05/08 10:26:49;;;;;;;14.43;12.93;;;20.30;99.90;;;;;;5013421;28;20076;-63
2023/05/08 10:29:32;;;;;;;12.55;11.25;;;20.40;99.90;;;;;;5010841;28;20030;-62
2023/05/08 10:32:01;;;;;;;14.27;11.85;;;20.60;99.90;;;;;;4987163;28;20107;-62
2023/05/08 10:34:29;;;;;;;14.48;12.57;;;20.80;99.90;;;;;;4981050;28;20045;-62
2023/05/08 10:36:56;;;;;;;13.85;11.85;;;20.90;99.90;;;;;;5001207;28;20739;-62
2023/05/08 10:39:24;;;;;;;13.15;11.85;;;21.00;99.90;;;;;;5002166;28;20598;-63
2023/05/08 10:41:50;;;;;;;14.43;12.93;;;21.10;99.90;;;;;;5000102;28;20984;-63
2023/05/08 10:44:17;;;;;;;14.07;12.55;;;21.20;99.90;;;;;;4982353;28;20057;-63
2023/05/08 10:46:48;;;;;;;16.92;13.18;;;21.30;99.70;;;;;;5014340;28;20053;-63
2023/05/08 10:49:57;;;;;;;16.05;13.65;;;21.30;99.50;;;;;;4995346;28;20056;-62
2023/05/08 10:52:33;;;;;;;15.52;13.93;;;21.40;99.90;;;;;;5014589;28;20067;-63
2023/05/08 10:55:03;;;;;;;18.23;13.88;;;21.60;99.70;;;;;;4997093;28;20041;-62
2023/05/08 10:57:30;;;;;;;16.63;13.27;;;21.70;99.40;;;;;;4998834;28;20053;-63
2023/05/08 10:59:56;;;;;;;15.57;13.80;;;21.80;99.50;;;;;;4996292;28;20056;-63
2023/05/08 11:02:31;;;;;;;15.13;13.63;;;22.00;99.40;;;;;;4979806;28;20550;-62
2023/05/08 11:05:17;;;;;;;17.00;13.82;;;22.00;99.10;;;;;;4995591;28;20045;-62
2023/05/08 11:07:53;;;;;;;16.42;12.77;;;22.10;98.30;;;;;;4997696;28;20041;-63
2023/05/08 11:10:19;;;;;;;15.60;13.13;;;22.20;99.00;;;;;;4998623;28;20515;-63
2023/05/08 11:12:49;;;;;;;14.45;12.75;;;22.30;99.30;;;;;;4981328;28;20116;-63
2023/05/08 11:15:14;;;;;;;15.07;13.52;;;22.50;99.60;;;;;;4989807;28;20096;-63
2023/05/08 11:17:45;;;;;;;16.45;13.95;;;22.70;98.70;;;;;;4978848;28;20144;-63
2023/05/08 11:20:11;;;;;;;14.77;13.15;;;22.70;98.30;;;;;;4993677;28;20056;-62
2023/05/08 11:22:37;;;;;;;15.75;13.82;;;22.90;97.90;;;;;;4990982;28;20049;-63
2023/05/08 11:25:09;;;;;;;14.57;13.15;;;23.00;98.00;;;;;;4965759;28;20440;-62
2023/05/08 11:27:40;;;;;;;19.30;13.27;;;23.20;97.90;;;;;;4990067;28;20050;-63
2023/05/08 11:30:25;;;;;;;15.68;12.90;;;23.30;97.40;;;;;;4992618;28;20046;-63
2023/05/08 11:33:03;;;;;;;19.83;13.77;;;23.50;97.80;;;;;;4990158;28;20046;-63
2023/05/08 11:35:49;;;;;;;14.88;13.35;;;23.70;97.30;;;;;;4991419;28;20096;-63
2023/05/08 11:38:28;;;;;;;15.23;13.60;;;23.70;96.40;;;;;;4992195;28;20579;-62
2023/05/08 11:40:57;;;;;;;14.85;13.32;;;23.80;95.90;;;;;;4988919;28;20556;-63
2023/05/08 11:43:32;;;;;;;14.32;12.93;;;23.80;95.20;;;;;;4978447;28;20049;-63
2023/05/08 11:46:02;;;;;;;15.48;13.05;;;23.90;95.90;;;;;;4973475;28;20132;-62
2023/05/08 11:48:32;;;;;;;12.98;11.55;;;24.00;96.30;;;;;;4989102;28;20046;-63
2023/05/08 11:51:02;;;;;;;13.32;11.93;;;24.20;95.90;;;;;;4989549;28;20045;-63
2023/05/08 11:53:31;;;;;;;14.10;12.65;;;24.30;96.10;;;;;;4988325;28;20497;-63
2023/05/08 11:55:58;;;;;;;14.30;12.80;;;24.40;95.80;;;;;;5007150;28;20080;-63
2023/05/08 11:58:24;;;;;;;15.30;13.70;;;24.50;95.70;;;;;;4972982;28;20050;-62
2023/05/08 12:00:50;;;;;;;17.02;14.10;;;24.70;94.80;;;;;;4990701;28;20519;-63
2023/05/08 12:03:20;;;;;;;14.52;13.02;;;24.80;94.20;;;;;;4987824;28;21173;-63
2023/05/08 12:05:47;;;;;;;13.27;11.88;;;24.90;95.10;;;;;;4990742;28;20133;-63
2023/05/08 12:08:15;;;;;;;17.27;14.07;;;25.10;94.60;;;;;;4990741;28;20045;-63
2023/05/08 12:10:51;;;;;;;14.70;13.07;;;25.20;92.60;;;;;;4991274;28;20042;-64
2023/05/08 12:13:28;;;;;;;18.05;12.73;;;25.20;91.40;;;;;;4965454;28;20050;-62
2023/05/08 12:15:59;;;;;;;14.40;13.00;;;25.40;92.80;;;;;;4984327;28;20168;-63
2023/05/08 12:18:27;;;;;;;13.50;12.10;;;25.60;92.60;;;;;;4987072;28;20591;-62
2023/05/08 12:20:58;;;;;;;17.33;12.05;;;25.70;92.00;;;;;;4987743;28;20061;-63
2023/05/08 12:23:25;;;;;;;15.55;12.88;;;25.90;91.80;;;;;;4988680;28;20084;-63
2023/05/08 12:25:57;;;;;;;13.95;12.55;;;26.00;91.20;;;;;;4962498;28;20103;-63
2023/05/08 12:28:23;;;;;;;13.93;12.48;;;26.00;90.30;;;;;;4969624;28;20129;-63
2023/05/08 12:30:49;;;;;;;12.73;11.40;;;26.00;89.60;;;;;;4984175;28;20046;-62
2023/05/08 12:33:15;;;;;;;14.10;12.18;;;26.20;90.40;;;;;;4974884;28;20054;-63
2023/05/08 12:35:41;;;;;;;12.85;11.55;;;26.50;89.60;;;;;;4990109;28;20049;-62
2023/05/08 12:38:08;;;;;;;12.10;10.90;;;26.70;88.10;;;;;;4960702;28;20538;-62
2023/05/08 12:40:44;;;;;;;13.85;12.45;;;26.90;88.00;;;;;;4989759;28;20508;-62